De Kalb, Mississippi
Current Conditions -  °F | °C
As of 1:22 AM on Saturday 20 Dec 2014 (Local Time) from KNMM Reporting Station
Haze Haze  
Wind Chill: 39°   Ceiling: 3600
Heat Index: 43°   Visibility: 4mi
Dew Point: 41°   Wind: 6mph
Humidity: 93%   Direction: 10°N
Pressure: 30.16"   Gusts: NA
Location:  32.77°N, 88.65°W
Report Text: KNMM 200722Z AUTO 01005KT 4SM BR FEW005 OVC036 06/05 A3016 RMK AO2 RAB03E13 P0000 T00610050
Loading
Personal Weather Stations






























Interactive Weather Map New forecast layout! Learn more

10-Day Weather Forecast

Advertisements
Track Severe Weather on mobile